Terminal Aerodrome Forecast
Issued by NWS Albany, NY

Home | Current Version | Previous Version | Text Only | Print | Product List | Glossary On
Versions: 1 2 3 4 5 6 7 8 9 10 11 12 13 14 15 16 17
093
FTUS41 KALY 251000 AAA
TAFALB
TAF AMD
KALB 251000Z 2510/2606 19008G18KT P6SM VCFG FEW003 SCT250
      TEMPO 2510/2511 VRB03KT 2SM BR BKN003
     FM251200 27005KT P6SM FEW200
     FM251600 29010KT P6SM FEW050
     FM251800 29012G20KT P6SM SCT050
     FM260000 29006KT P6SM SCT250=

USA.gov is the U.S. government's official web portal to all federal, state and local government web resources and services.